sensor_id;sensor_type;location;lat;lon;timestamp;P1;durP1;ratioP1;P2;durP2;ratioP2
78131;SDS011;67381;47.672;9.380;2024-01-30T00:01:25;26.70;;;8.10;;
78131;SDS011;67381;47.672;9.380;2024-01-30T00:03:52;26.33;;;7.65;;
78131;SDS011;67381;47.672;9.380;2024-01-30T00:06:19;27.52;;;7.22;;
78131;SDS011;67381;47.672;9.380;2024-01-30T00:08:47;26.17;;;7.25;;
78131;SDS011;67381;47.672;9.380;2024-01-30T00:11:15;13.80;;;7.35;;
78131;SDS011;67381;47.672;9.380;2024-01-30T00:13:43;15.45;;;6.70;;
78131;SDS011;67381;47.672;9.380;2024-01-30T00:16:19;16.88;;;7.82;;
78131;SDS011;67381;47.672;9.380;2024-01-30T00:18:46;21.50;;;7.47;;
78131;SDS011;67381;47.672;9.380;2024-01-30T00:21:13;18.88;;;7.32;;
78131;SDS011;67381;47.672;9.380;2024-01-30T00:23:40;12.90;;;6.50;;
78131;SDS011;67381;47.672;9.380;2024-01-30T00:26:07;30.83;;;8.60;;
78131;SDS011;67381;47.672;9.380;2024-01-30T00:28:34;16.80;;;7.47;;
78131;SDS011;67381;47.672;9.380;2024-01-30T00:31:01;26.88;;;7.32;;
78131;SDS011;67381;47.672;9.380;2024-01-30T00:33:28;19.30;;;7.50;;
78131;SDS011;67381;47.672;9.380;2024-01-30T00:35:56;11.43;;;6.90;;
78131;SDS011;67381;47.672;9.380;2024-01-30T00:38:23;22.23;;;7.72;;
78131;SDS011;67381;47.672;9.380;2024-01-30T00:40:50;23.20;;;7.70;;
78131;SDS011;67381;47.672;9.380;2024-01-30T00:43:17;22.05;;;7.65;;
78131;SDS011;67381;47.672;9.380;2024-01-30T00:45:44;32.13;;;8.43;;
78131;SDS011;67381;47.672;9.380;2024-01-30T00:48:11;22.10;;;8.20;;
78131;SDS011;67381;47.672;9.380;2024-01-30T00:50:38;14.10;;;7.10;;
78131;SDS011;67381;47.672;9.380;2024-01-30T00:53:05;12.57;;;6.47;;
78131;SDS011;67381;47.672;9.380;2024-01-30T00:55:32;23.33;;;7.28;;
78131;SDS011;67381;47.672;9.380;2024-01-30T00:58:00;23.20;;;9.05;;
78131;SDS011;67381;47.672;9.380;2024-01-30T01:00:27;25.38;;;6.75;;
78131;SDS011;67381;47.672;9.380;2024-01-30T01:02:55;12.80;;;6.60;;
78131;SDS011;67381;47.672;9.380;2024-01-30T01:05:22;13.90;;;6.85;;
78131;SDS011;67381;47.672;9.380;2024-01-30T01:07:50;27.08;;;7.00;;
78131;SDS011;67381;47.672;9.380;2024-01-30T01:10:17;36.03;;;6.90;;
78131;SDS011;67381;47.672;9.380;2024-01-30T01:12:45;37.90;;;7.10;;
78131;SDS011;67381;47.672;9.380;2024-01-30T01:15:12;15.57;;;6.45;;
78131;SDS011;67381;47.672;9.380;2024-01-30T01:17:39;15.20;;;7.00;;
78131;SDS011;67381;47.672;9.380;2024-01-30T01:20:07;22.70;;;7.28;;
78131;SDS011;67381;47.672;9.380;2024-01-30T01:22:34;19.80;;;7.18;;
78131;SDS011;67381;47.672;9.380;2024-01-30T01:25:01;16.98;;;6.60;;
78131;SDS011;67381;47.672;9.380;2024-01-30T01:27:29;13.63;;;7.03;;
78131;SDS011;67381;47.672;9.380;2024-01-30T01:29:56;18.42;;;6.95;;
78131;SDS011;67381;47.672;9.380;2024-01-30T01:32:23;21.73;;;7.10;;
78131;SDS011;67381;47.672;9.380;2024-01-30T01:34:50;26.35;;;8.07;;
78131;SDS011;67381;47.672;9.380;2024-01-30T01:37:17;27.65;;;8.00;;
78131;SDS011;67381;47.672;9.380;2024-01-30T01:39:44;50.42;;;8.32;;
78131;SDS011;67381;47.672;9.380;2024-01-30T01:42:11;30.00;;;8.05;;
78131;SDS011;67381;47.672;9.380;2024-01-30T01:44:38;49.40;;;7.47;;
78131;SDS011;67381;47.672;9.380;2024-01-30T01:47:05;71.85;;;9.32;;
78131;SDS011;67381;47.672;9.380;2024-01-30T01:49:33;69.68;;;9.55;;
78131;SDS011;67381;47.672;9.380;2024-01-30T01:52:00;24.50;;;7.10;;
78131;SDS011;67381;47.672;9.380;2024-01-30T01:54:27;34.95;;;8.00;;
78131;SDS011;67381;47.672;9.380;2024-01-30T01:56:56;24.40;;;6.90;;
78131;SDS011;67381;47.672;9.380;2024-01-30T01:59:23;28.13;;;8.00;;
78131;SDS011;67381;47.672;9.380;2024-01-30T02:01:50;39.78;;;8.35;;
78131;SDS011;67381;47.672;9.380;2024-01-30T02:04:18;57.60;;;7.53;;
78131;SDS011;67381;47.672;9.380;2024-01-30T02:06:45;12.90;;;5.30;;
78131;SDS011;67381;47.672;9.380;2024-01-30T02:09:12;14.43;;;6.07;;
78131;SDS011;67381;47.672;9.380;2024-01-30T02:11:40;42.08;;;7.57;;
78131;SDS011;67381;47.672;9.380;2024-01-30T02:14:07;14.07;;;6.75;;
78131;SDS011;67381;47.672;9.380;2024-01-30T02:16:34;19.52;;;7.10;;
78131;SDS011;67381;47.672;9.380;2024-01-30T02:19:02;18.10;;;6.45;;
78131;SDS011;67381;47.672;9.380;2024-01-30T02:21:32;29.85;;;7.50;;
78131;SDS011;67381;47.672;9.380;2024-01-30T02:24:00;22.88;;;6.47;;
78131;SDS011;67381;47.672;9.380;2024-01-30T02:26:28;22.45;;;6.88;;
78131;SDS011;67381;47.672;9.380;2024-01-30T02:28:55;26.75;;;6.53;;
78131;SDS011;67381;47.672;9.380;2024-01-30T02:31:22;21.08;;;5.68;;
78131;SDS011;67381;47.672;9.380;2024-01-30T02:33:49;12.60;;;6.95;;
78131;SDS011;67381;47.672;9.380;2024-01-30T02:36:16;16.33;;;5.53;;
78131;SDS011;67381;47.672;9.380;2024-01-30T02:38:43;22.23;;;6.43;;
78131;SDS011;67381;47.672;9.380;2024-01-30T02:41:10;12.95;;;5.72;;
78131;SDS011;67381;47.672;9.380;2024-01-30T02:43:37;17.35;;;6.20;;
78131;SDS011;67381;47.672;9.380;2024-01-30T02:46:04;18.00;;;5.57;;
78131;SDS011;67381;47.672;9.380;2024-01-30T02:48:31;15.55;;;5.45;;
78131;SDS011;67381;47.672;9.380;2024-01-30T02:50:58;16.02;;;6.78;;
78131;SDS011;67381;47.672;9.380;2024-01-30T02:53:25;16.95;;;7.00;;
78131;SDS011;67381;47.672;9.380;2024-01-30T02:55:52;15.60;;;5.53;;
78131;SDS011;67381;47.672;9.380;2024-01-30T02:58:20;11.20;;;5.47;;
78131;SDS011;67381;47.672;9.380;2024-01-30T03:00:47;15.18;;;6.38;;
78131;SDS011;67381;47.672;9.380;2024-01-30T03:03:14;20.23;;;5.88;;
78131;SDS011;67381;47.672;9.380;2024-01-30T03:05:41;8.77;;;4.78;;
78131;SDS011;67381;47.672;9.380;2024-01-30T03:08:08;13.48;;;5.35;;
78131;SDS011;67381;47.672;9.380;2024-01-30T03:10:35;9.48;;;5.65;;
78131;SDS011;67381;47.672;9.380;2024-01-30T03:13:02;15.25;;;4.88;;
78131;SDS011;67381;47.672;9.380;2024-01-30T03:15:29;8.80;;;4.97;;
78131;SDS011;67381;47.672;9.380;2024-01-30T03:17:56;8.55;;;4.90;;
78131;SDS011;67381;47.672;9.380;2024-01-30T03:20:23;14.85;;;5.68;;
78131;SDS011;67381;47.672;9.380;2024-01-30T03:22:51;14.20;;;5.15;;
78131;SDS011;67381;47.672;9.380;2024-01-30T03:25:18;13.45;;;5.32;;
78131;SDS011;67381;47.672;9.380;2024-01-30T03:27:45;19.65;;;5.70;;
78131;SDS011;67381;47.672;9.380;2024-01-30T03:30:12;94.53;;;10.35;;
78131;SDS011;67381;47.672;9.380;2024-01-30T03:32:39;11.68;;;4.93;;
78131;SDS011;67381;47.672;9.380;2024-01-30T03:35:06;17.98;;;5.55;;
78131;SDS011;67381;47.672;9.380;2024-01-30T03:37:33;39.85;;;6.57;;
78131;SDS011;67381;47.672;9.380;2024-01-30T03:40:01;14.38;;;5.70;;
78131;SDS011;67381;47.672;9.380;2024-01-30T03:42:28;15.88;;;5.55;;
78131;SDS011;67381;47.672;9.380;2024-01-30T03:44:56;18.52;;;5.45;;
78131;SDS011;67381;47.672;9.380;2024-01-30T03:47:23;12.25;;;5.93;;
78131;SDS011;67381;47.672;9.380;2024-01-30T03:49:50;20.23;;;6.40;;
78131;SDS011;67381;47.672;9.380;2024-01-30T03:52:17;8.90;;;4.22;;
78131;SDS011;67381;47.672;9.380;2024-01-30T03:54:44;9.73;;;5.50;;
78131;SDS011;67381;47.672;9.380;2024-01-30T03:57:11;13.15;;;5.43;;
78131;SDS011;67381;47.672;9.380;2024-01-30T03:59:38;9.35;;;5.85;;
78131;SDS011;67381;47.672;9.380;2024-01-30T04:02:05;16.77;;;6.00;;
78131;SDS011;67381;47.672;9.380;2024-01-30T04:04:32;16.27;;;6.00;;
78131;SDS011;67381;47.672;9.380;2024-01-30T04:06:59;14.32;;;5.57;;
78131;SDS011;67381;47.672;9.380;2024-01-30T04:09:26;9.75;;;5.35;;
78131;SDS011;67381;47.672;9.380;2024-01-30T04:11:55;15.80;;;5.95;;
78131;SDS011;67381;47.672;9.380;2024-01-30T04:14:22;9.57;;;5.53;;
78131;SDS011;67381;47.672;9.380;2024-01-30T04:16:49;10.85;;;5.47;;
78131;SDS011;67381;47.672;9.380;2024-01-30T04:19:16;28.40;;;6.18;;
78131;SDS011;67381;47.672;9.380;2024-01-30T04:21:43;20.80;;;6.95;;
78131;SDS011;67381;47.672;9.380;2024-01-30T04:24:10;26.17;;;6.13;;
78131;SDS011;67381;47.672;9.380;2024-01-30T04:26:37;18.20;;;5.70;;
78131;SDS011;67381;47.672;9.380;2024-01-30T04:29:04;24.17;;;6.35;;
78131;SDS011;67381;47.672;9.380;2024-01-30T04:31:31;14.70;;;5.55;;
78131;SDS011;67381;47.672;9.380;2024-01-30T04:33:58;13.32;;;5.45;;
78131;SDS011;67381;47.672;9.380;2024-01-30T04:36:25;10.00;;;5.50;;
78131;SDS011;67381;47.672;9.380;2024-01-30T04:38:52;18.77;;;5.35;;
78131;SDS011;67381;47.672;9.380;2024-01-30T04:41:19;7.95;;;4.55;;
78131;SDS011;67381;47.672;9.380;2024-01-30T04:43:46;23.02;;;6.07;;
78131;SDS011;67381;47.672;9.380;2024-01-30T04:46:13;24.33;;;6.05;;
78131;SDS011;67381;47.672;9.380;2024-01-30T04:48:40;14.77;;;4.72;;
78131;SDS011;67381;47.672;9.380;2024-01-30T04:51:07;17.80;;;5.68;;
78131;SDS011;67381;47.672;9.380;2024-01-30T04:53:34;24.48;;;5.88;;
78131;SDS011;67381;47.672;9.380;2024-01-30T04:56:01;36.38;;;6.78;;
78131;SDS011;67381;47.672;9.380;2024-01-30T04:58:28;11.75;;;5.18;;
78131;SDS011;67381;47.672;9.380;2024-01-30T05:00:55;17.10;;;5.03;;
78131;SDS011;67381;47.672;9.380;2024-01-30T05:03:23;19.23;;;5.45;;
78131;SDS011;67381;47.672;9.380;2024-01-30T05:05:51;16.60;;;5.22;;
78131;SDS011;67381;47.672;9.380;2024-01-30T05:08:18;11.50;;;4.72;;
78131;SDS011;67381;47.672;9.380;2024-01-30T05:10:45;12.95;;;5.20;;
78131;SDS011;67381;47.672;9.380;2024-01-30T05:13:12;8.85;;;4.65;;
78131;SDS011;67381;47.672;9.380;2024-01-30T05:15:40;9.77;;;4.63;;
78131;SDS011;67381;47.672;9.380;2024-01-30T05:18:07;13.57;;;4.40;;
78131;SDS011;67381;47.672;9.380;2024-01-30T05:20:34;8.27;;;3.85;;
78131;SDS011;67381;47.672;9.380;2024-01-30T05:23:01;7.35;;;4.75;;
78131;SDS011;67381;47.672;9.380;2024-01-30T05:25:28;13.43;;;5.72;;
78131;SDS011;67381;47.672;9.380;2024-01-30T05:27:55;9.40;;;4.88;;
78131;SDS011;67381;47.672;9.380;2024-01-30T05:30:23;8.40;;;4.78;;
78131;SDS011;67381;47.672;9.380;2024-01-30T05:32:50;12.45;;;5.28;;
78131;SDS011;67381;47.672;9.380;2024-01-30T05:35:17;9.40;;;5.03;;
78131;SDS011;67381;47.672;9.380;2024-01-30T05:37:44;7.55;;;3.88;;
78131;SDS011;67381;47.672;9.380;2024-01-30T05:40:11;11.25;;;5.68;;
78131;SDS011;67381;47.672;9.380;2024-01-30T05:42:38;10.23;;;4.03;;
78131;SDS011;67381;47.672;9.380;2024-01-30T05:45:05;15.02;;;5.05;;
78131;SDS011;67381;47.672;9.380;2024-01-30T05:47:32;18.30;;;4.53;;
78131;SDS011;67381;47.672;9.380;2024-01-30T05:49:59;9.50;;;5.75;;
78131;SDS011;67381;47.672;9.380;2024-01-30T05:52:26;11.93;;;4.75;;
78131;SDS011;67381;47.672;9.380;2024-01-30T05:54:53;10.70;;;4.72;;
78131;SDS011;67381;47.672;9.380;2024-01-30T05:57:20;9.70;;;5.15;;
78131;SDS011;67381;47.672;9.380;2024-01-30T05:59:47;8.32;;;4.78;;
78131;SDS011;67381;47.672;9.380;2024-01-30T06:02:14;23.83;;;5.55;;
78131;SDS011;67381;47.672;9.380;2024-01-30T06:04:42;11.35;;;5.68;;
78131;SDS011;67381;47.672;9.380;2024-01-30T06:07:09;15.57;;;5.53;;
78131;SDS011;67381;47.672;9.380;2024-01-30T06:09:36;12.00;;;5.03;;
78131;SDS011;67381;47.672;9.380;2024-01-30T06:12:03;8.70;;;5.30;;
78131;SDS011;67381;47.672;9.380;2024-01-30T06:14:31;12.30;;;5.45;;
78131;SDS011;67381;47.672;9.380;2024-01-30T06:16:59;18.40;;;4.85;;
78131;SDS011;67381;47.672;9.380;2024-01-30T06:19:26;22.40;;;5.28;;
78131;SDS011;67381;47.672;9.380;2024-01-30T06:21:53;16.10;;;5.20;;
78131;SDS011;67381;47.672;9.380;2024-01-30T06:24:20;18.40;;;5.20;;
78131;SDS011;67381;47.672;9.380;2024-01-30T06:26:47;17.23;;;5.40;;
78131;SDS011;67381;47.672;9.380;2024-01-30T06:29:14;17.38;;;6.65;;
78131;SDS011;67381;47.672;9.380;2024-01-30T06:31:44;12.32;;;5.07;;
78131;SDS011;67381;47.672;9.380;2024-01-30T06:34:11;22.48;;;5.63;;
78131;SDS011;67381;47.672;9.380;2024-01-30T06:36:38;30.05;;;6.45;;
78131;SDS011;67381;47.672;9.380;2024-01-30T06:39:06;35.72;;;6.57;;
78131;SDS011;67381;47.672;9.380;2024-01-30T06:41:34;25.73;;;6.90;;
78131;SDS011;67381;47.672;9.380;2024-01-30T06:44:04;12.68;;;5.78;;
78131;SDS011;67381;47.672;9.380;2024-01-30T06:46:33;17.98;;;5.32;;
78131;SDS011;67381;47.672;9.380;2024-01-30T06:49:00;10.85;;;5.70;;
78131;SDS011;67381;47.672;9.380;2024-01-30T06:51:27;19.00;;;6.53;;
78131;SDS011;67381;47.672;9.380;2024-01-30T06:53:54;15.05;;;5.57;;
78131;SDS011;67381;47.672;9.380;2024-01-30T06:56:21;13.98;;;5.65;;
78131;SDS011;67381;47.672;9.380;2024-01-30T06:58:52;29.30;;;6.53;;
78131;SDS011;67381;47.672;9.380;2024-01-30T07:01:19;79.32;;;8.70;;
78131;SDS011;67381;47.672;9.380;2024-01-30T07:03:46;26.90;;;7.25;;
78131;SDS011;67381;47.672;9.380;2024-01-30T07:06:13;28.13;;;6.30;;
78131;SDS011;67381;47.672;9.380;2024-01-30T07:08:40;13.45;;;6.05;;
78131;SDS011;67381;47.672;9.380;2024-01-30T07:11:07;32.70;;;7.57;;
78131;SDS011;67381;47.672;9.380;2024-01-30T07:13:35;12.75;;;5.28;;
78131;SDS011;67381;47.672;9.380;2024-01-30T07:16:02;22.38;;;6.25;;
78131;SDS011;67381;47.672;9.380;2024-01-30T07:18:29;26.67;;;7.55;;
78131;SDS011;67381;47.672;9.380;2024-01-30T07:20:56;17.83;;;5.68;;
78131;SDS011;67381;47.672;9.380;2024-01-30T07:23:23;13.00;;;6.00;;
78131;SDS011;67381;47.672;9.380;2024-01-30T07:25:50;30.30;;;8.07;;
78131;SDS011;67381;47.672;9.380;2024-01-30T07:28:17;17.10;;;5.97;;
78131;SDS011;67381;47.672;9.380;2024-01-30T07:30:44;24.27;;;5.95;;
78131;SDS011;67381;47.672;9.380;2024-01-30T07:33:11;20.95;;;6.53;;
78131;SDS011;67381;47.672;9.380;2024-01-30T07:35:38;22.42;;;6.95;;
78131;SDS011;67381;47.672;9.380;2024-01-30T07:38:05;14.40;;;7.30;;
78131;SDS011;67381;47.672;9.380;2024-01-30T07:40:33;13.63;;;7.40;;
78131;SDS011;67381;47.672;9.380;2024-01-30T07:43:00;21.83;;;7.40;;
78131;SDS011;67381;47.672;9.380;2024-01-30T07:45:27;44.05;;;9.38;;
78131;SDS011;67381;47.672;9.380;2024-01-30T07:47:59;22.30;;;7.80;;
78131;SDS011;67381;47.672;9.380;2024-01-30T07:50:29;25.05;;;7.85;;
78131;SDS011;67381;47.672;9.380;2024-01-30T07:52:56;14.80;;;7.05;;
78131;SDS011;67381;47.672;9.380;2024-01-30T07:55:23;31.88;;;8.68;;
78131;SDS011;67381;47.672;9.380;2024-01-30T07:57:58;19.65;;;8.88;;
78131;SDS011;67381;47.672;9.380;2024-01-30T08:00:26;23.88;;;7.90;;
78131;SDS011;67381;47.672;9.380;2024-01-30T08:02:53;15.38;;;6.90;;
78131;SDS011;67381;47.672;9.380;2024-01-30T08:05:22;25.70;;;7.85;;
78131;SDS011;67381;47.672;9.380;2024-01-30T08:07:50;26.45;;;7.53;;
78131;SDS011;67381;47.672;9.380;2024-01-30T08:10:17;20.63;;;8.05;;
78131;SDS011;67381;47.672;9.380;2024-01-30T08:12:45;19.77;;;7.22;;
78131;SDS011;67381;47.672;9.380;2024-01-30T08:15:12;16.25;;;7.90;;
78131;SDS011;67381;47.672;9.380;2024-01-30T08:17:40;17.98;;;7.82;;
78131;SDS011;67381;47.672;9.380;2024-01-30T08:20:07;30.02;;;6.95;;
78131;SDS011;67381;47.672;9.380;2024-01-30T08:22:35;37.47;;;8.20;;
78131;SDS011;67381;47.672;9.380;2024-01-30T08:25:02;18.38;;;7.45;;
78131;SDS011;67381;47.672;9.380;2024-01-30T08:27:29;17.73;;;7.68;;
78131;SDS011;67381;47.672;9.380;2024-01-30T08:29:56;24.05;;;7.70;;
78131;SDS011;67381;47.672;9.380;2024-01-30T08:32:23;19.70;;;6.95;;
78131;SDS011;67381;47.672;9.380;2024-01-30T08:34:50;13.88;;;6.80;;
78131;SDS011;67381;47.672;9.380;2024-01-30T08:37:17;14.35;;;6.35;;
78131;SDS011;67381;47.672;9.380;2024-01-30T08:39:44;19.75;;;6.80;;
78131;SDS011;67381;47.672;9.380;2024-01-30T08:42:12;16.77;;;6.40;;
78131;SDS011;67381;47.672;9.380;2024-01-30T08:44:39;20.40;;;6.53;;
78131;SDS011;67381;47.672;9.380;2024-01-30T08:47:06;15.77;;;6.47;;
78131;SDS011;67381;47.672;9.380;2024-01-30T08:49:33;19.55;;;6.90;;
78131;SDS011;67381;47.672;9.380;2024-01-30T08:52:00;12.27;;;6.22;;
78131;SDS011;67381;47.672;9.380;2024-01-30T08:54:27;42.85;;;8.27;;
78131;SDS011;67381;47.672;9.380;2024-01-30T08:56:54;42.55;;;7.07;;
78131;SDS011;67381;47.672;9.380;2024-01-30T08:59:23;19.80;;;6.15;;
78131;SDS011;67381;47.672;9.380;2024-01-30T09:01:50;16.05;;;6.93;;
78131;SDS011;67381;47.672;9.380;2024-01-30T09:04:21;39.38;;;8.25;;
78131;SDS011;67381;47.672;9.380;2024-01-30T09:06:50;82.38;;;9.23;;
78131;SDS011;67381;47.672;9.380;2024-01-30T09:09:17;30.00;;;7.78;;
78131;SDS011;67381;47.672;9.380;2024-01-30T09:11:44;43.28;;;8.25;;
78131;SDS011;67381;47.672;9.380;2024-01-30T09:14:11;16.83;;;6.55;;
78131;SDS011;67381;47.672;9.380;2024-01-30T09:16:38;71.22;;;8.35;;
78131;SDS011;67381;47.672;9.380;2024-01-30T09:19:05;34.30;;;7.53;;
78131;SDS011;67381;47.672;9.380;2024-01-30T09:21:33;17.60;;;7.30;;
78131;SDS011;67381;47.672;9.380;2024-01-30T09:24:03;18.45;;;7.65;;
78131;SDS011;67381;47.672;9.380;2024-01-30T09:26:33;14.27;;;8.75;;
78131;SDS011;67381;47.672;9.380;2024-01-30T09:29:00;84.75;;;8.35;;
78131;SDS011;67381;47.672;9.380;2024-01-30T09:31:27;78.57;;;8.43;;
78131;SDS011;67381;47.672;9.380;2024-01-30T09:33:54;86.95;;;9.75;;
78131;SDS011;67381;47.672;9.380;2024-01-30T09:36:21;30.40;;;6.75;;
78131;SDS011;67381;47.672;9.380;2024-01-30T09:38:48;14.50;;;7.50;;
78131;SDS011;67381;47.672;9.380;2024-01-30T09:41:16;16.75;;;6.82;;
78131;SDS011;67381;47.672;9.380;2024-01-30T09:43:47;14.20;;;6.15;;
78131;SDS011;67381;47.672;9.380;2024-01-30T09:46:18;18.70;;;7.45;;
78131;SDS011;67381;47.672;9.380;2024-01-30T09:48:48;14.73;;;7.35;;
78131;SDS011;67381;47.672;9.380;2024-01-30T09:51:16;11.52;;;6.65;;
78131;SDS011;67381;47.672;9.380;2024-01-30T09:53:43;16.80;;;7.22;;
78131;SDS011;67381;47.672;9.380;2024-01-30T09:56:12;22.65;;;6.97;;
78131;SDS011;67381;47.672;9.380;2024-01-30T09:58:39;22.60;;;7.00;;
78131;SDS011;67381;47.672;9.380;2024-01-30T10:01:07;17.25;;;6.75;;
78131;SDS011;67381;47.672;9.380;2024-01-30T10:03:34;23.42;;;7.63;;
78131;SDS011;67381;47.672;9.380;2024-01-30T10:06:01;14.90;;;7.10;;
78131;SDS011;67381;47.672;9.380;2024-01-30T10:08:28;16.77;;;6.90;;
78131;SDS011;67381;47.672;9.380;2024-01-30T10:10:56;35.17;;;7.40;;
78131;SDS011;67381;47.672;9.380;2024-01-30T10:13:23;34.22;;;7.35;;
78131;SDS011;67381;47.672;9.380;2024-01-30T10:15:52;26.48;;;7.82;;
78131;SDS011;67381;47.672;9.380;2024-01-30T10:18:19;39.58;;;7.18;;
78131;SDS011;67381;47.672;9.380;2024-01-30T10:20:46;13.95;;;6.57;;
78131;SDS011;67381;47.672;9.380;2024-01-30T10:23:13;15.68;;;6.22;;
78131;SDS011;67381;47.672;9.380;2024-01-30T10:25:40;13.93;;;6.75;;
78131;SDS011;67381;47.672;9.380;2024-01-30T10:28:08;15.82;;;7.47;;
78131;SDS011;67381;47.672;9.380;2024-01-30T10:30:36;15.23;;;7.15;;
78131;SDS011;67381;47.672;9.380;2024-01-30T10:33:03;15.63;;;7.18;;
78131;SDS011;67381;47.672;9.380;2024-01-30T10:35:30;16.40;;;6.32;;
78131;SDS011;67381;47.672;9.380;2024-01-30T10:37:57;16.27;;;8.30;;
78131;SDS011;67381;47.672;9.380;2024-01-30T10:40:28;45.90;;;10.13;;
78131;SDS011;67381;47.672;9.380;2024-01-30T10:42:55;34.20;;;8.55;;
78131;SDS011;67381;47.672;9.380;2024-01-30T10:45:23;19.17;;;8.65;;
78131;SDS011;67381;47.672;9.380;2024-01-30T10:47:54;20.25;;;7.07;;
78131;SDS011;67381;47.672;9.380;2024-01-30T10:50:24;14.05;;;7.45;;
78131;SDS011;67381;47.672;9.380;2024-01-30T10:52:51;16.30;;;8.60;;
78131;SDS011;67381;47.672;9.380;2024-01-30T10:55:22;45.67;;;9.07;;
78131;SDS011;67381;47.672;9.380;2024-01-30T10:57:50;16.10;;;7.90;;
78131;SDS011;67381;47.672;9.380;2024-01-30T11:00:18;14.13;;;7.57;;
78131;SDS011;67381;47.672;9.380;2024-01-30T11:02:49;21.98;;;8.55;;
78131;SDS011;67381;47.672;9.380;2024-01-30T11:05:23;28.90;;;9.07;;
78131;SDS011;67381;47.672;9.380;2024-01-30T11:07:50;16.70;;;9.90;;
78131;SDS011;67381;47.672;9.380;2024-01-30T11:10:17;19.55;;;8.75;;
78131;SDS011;67381;47.672;9.380;2024-01-30T11:12:45;31.27;;;10.20;;
78131;SDS011;67381;47.672;9.380;2024-01-30T11:15:13;17.90;;;8.80;;
78131;SDS011;67381;47.672;9.380;2024-01-30T11:20:11;13.93;;;7.07;;
78131;SDS011;67381;47.672;9.380;2024-01-30T11:22:40;21.20;;;9.32;;
78131;SDS011;67381;47.672;9.380;2024-01-30T11:25:10;19.50;;;9.02;;
78131;SDS011;67381;47.672;9.380;2024-01-30T11:27:37;20.75;;;9.15;;
78131;SDS011;67381;47.672;9.380;2024-01-30T11:30:05;16.75;;;9.75;;
78131;SDS011;67381;47.672;9.380;2024-01-30T11:32:33;27.23;;;10.90;;
78131;SDS011;67381;47.672;9.380;2024-01-30T11:35:03;26.00;;;8.63;;
78131;SDS011;67381;47.672;9.380;2024-01-30T11:37:30;17.20;;;8.70;;
78131;SDS011;67381;47.672;9.380;2024-01-30T11:39:57;13.82;;;8.77;;
78131;SDS011;67381;47.672;9.380;2024-01-30T11:42:25;17.55;;;9.02;;
78131;SDS011;67381;47.672;9.380;2024-01-30T11:44:53;20.02;;;9.60;;
78131;SDS011;67381;47.672;9.380;2024-01-30T11:47:20;18.60;;;9.95;;
78131;SDS011;67381;47.672;9.380;2024-01-30T11:49:47;25.73;;;10.25;;
78131;SDS011;67381;47.672;9.380;2024-01-30T11:52:15;19.20;;;9.05;;
78131;SDS011;67381;47.672;9.380;2024-01-30T11:54:42;25.30;;;10.35;;
78131;SDS011;67381;47.672;9.380;2024-01-30T11:57:09;23.85;;;9.70;;
78131;SDS011;67381;47.672;9.380;2024-01-30T11:59:36;24.02;;;9.18;;
78131;SDS011;67381;47.672;9.380;2024-01-30T12:02:03;19.00;;;10.68;;
78131;SDS011;67381;47.672;9.380;2024-01-30T12:04:31;20.55;;;8.88;;
78131;SDS011;67381;47.672;9.380;2024-01-30T12:06:58;21.80;;;9.18;;
78131;SDS011;67381;47.672;9.380;2024-01-30T12:09:26;23.10;;;9.93;;
78131;SDS011;67381;47.672;9.380;2024-01-30T12:11:54;16.20;;;9.30;;
78131;SDS011;67381;47.672;9.380;2024-01-30T12:14:22;20.75;;;9.20;;
78131;SDS011;67381;47.672;9.380;2024-01-30T12:16:49;20.92;;;9.48;;
78131;SDS011;67381;47.672;9.380;2024-01-30T12:19:24;22.00;;;9.63;;
78131;SDS011;67381;47.672;9.380;2024-01-30T12:21:55;28.20;;;9.75;;
78131;SDS011;67381;47.672;9.380;2024-01-30T12:24:23;21.30;;;9.98;;
78131;SDS011;67381;47.672;9.380;2024-01-30T12:26:51;18.52;;;8.55;;
78131;SDS011;67381;47.672;9.380;2024-01-30T12:29:19;18.42;;;9.18;;
78131;SDS011;67381;47.672;9.380;2024-01-30T12:31:47;23.77;;;10.77;;
78131;SDS011;67381;47.672;9.380;2024-01-30T12:34:14;16.00;;;8.95;;
78131;SDS011;67381;47.672;9.380;2024-01-30T12:36:43;18.08;;;9.32;;
78131;SDS011;67381;47.672;9.380;2024-01-30T12:39:11;19.42;;;9.55;;
78131;SDS011;67381;47.672;9.380;2024-01-30T12:41:39;17.88;;;9.27;;
78131;SDS011;67381;47.672;9.380;2024-01-30T12:44:07;17.58;;;8.70;;
78131;SDS011;67381;47.672;9.380;2024-01-30T12:46:34;19.30;;;9.88;;
78131;SDS011;67381;47.672;9.380;2024-01-30T12:49:01;16.40;;;9.30;;
78131;SDS011;67381;47.672;9.380;2024-01-30T12:51:28;15.95;;;9.55;;
78131;SDS011;67381;47.672;9.380;2024-01-30T12:53:55;18.52;;;9.27;;
78131;SDS011;67381;47.672;9.380;2024-01-30T12:56:23;15.10;;;9.90;;
78131;SDS011;67381;47.672;9.380;2024-01-30T12:58:50;18.67;;;9.43;;
78131;SDS011;67381;47.672;9.380;2024-01-30T13:01:17;18.55;;;8.90;;
78131;SDS011;67381;47.672;9.380;2024-01-30T13:03:44;16.65;;;9.40;;
78131;SDS011;67381;47.672;9.380;2024-01-30T13:06:11;17.17;;;9.77;;
78131;SDS011;67381;47.672;9.380;2024-01-30T13:08:38;19.10;;;10.57;;
78131;SDS011;67381;47.672;9.380;2024-01-30T13:11:06;17.60;;;10.65;;
78131;SDS011;67381;47.672;9.380;2024-01-30T13:13:35;17.95;;;9.90;;
78131;SDS011;67381;47.672;9.380;2024-01-30T13:16:02;21.20;;;10.88;;
78131;SDS011;67381;47.672;9.380;2024-01-30T13:18:29;17.35;;;9.70;;
78131;SDS011;67381;47.672;9.380;2024-01-30T13:20:56;19.63;;;11.40;;
78131;SDS011;67381;47.672;9.380;2024-01-30T13:23:24;27.13;;;9.30;;
78131;SDS011;67381;47.672;9.380;2024-01-30T13:28:54;23.13;;;10.80;;
78131;SDS011;67381;47.672;9.380;2024-01-30T13:31:21;23.65;;;10.48;;
78131;SDS011;67381;47.672;9.380;2024-01-30T13:33:48;20.02;;;10.75;;
78131;SDS011;67381;47.672;9.380;2024-01-30T13:36:16;22.55;;;11.82;;
78131;SDS011;67381;47.672;9.380;2024-01-30T13:38:43;19.45;;;11.57;;
78131;SDS011;67381;47.672;9.380;2024-01-30T13:41:10;20.98;;;11.95;;
78131;SDS011;67381;47.672;9.380;2024-01-30T13:43:37;20.55;;;10.40;;
78131;SDS011;67381;47.672;9.380;2024-01-30T13:46:04;18.05;;;10.40;;
78131;SDS011;67381;47.672;9.380;2024-01-30T13:48:31;22.52;;;11.18;;
78131;SDS011;67381;47.672;9.380;2024-01-30T13:50:58;21.35;;;10.48;;
78131;SDS011;67381;47.672;9.380;2024-01-30T13:53:26;19.83;;;11.32;;
78131;SDS011;67381;47.672;9.380;2024-01-30T13:55:53;19.55;;;10.57;;
78131;SDS011;67381;47.672;9.380;2024-01-30T13:58:20;19.48;;;11.35;;
78131;SDS011;67381;47.672;9.380;2024-01-30T14:00:47;20.55;;;11.93;;
78131;SDS011;67381;47.672;9.380;2024-01-30T14:03:14;20.60;;;11.32;;
78131;SDS011;67381;47.672;9.380;2024-01-30T14:05:41;22.10;;;12.35;;
78131;SDS011;67381;47.672;9.380;2024-01-30T14:08:09;22.92;;;12.65;;
78131;SDS011;67381;47.672;9.380;2024-01-30T14:10:36;20.02;;;12.13;;
78131;SDS011;67381;47.672;9.380;2024-01-30T14:13:03;20.77;;;12.05;;
78131;SDS011;67381;47.672;9.380;2024-01-30T14:15:30;21.35;;;11.85;;
78131;SDS011;67381;47.672;9.380;2024-01-30T14:17:57;24.33;;;12.75;;
78131;SDS011;67381;47.672;9.380;2024-01-30T14:20:24;20.73;;;11.75;;
78131;SDS011;67381;47.672;9.380;2024-01-30T14:22:51;18.38;;;11.63;;
78131;SDS011;67381;47.672;9.380;2024-01-30T14:25:21;20.38;;;12.35;;
78131;SDS011;67381;47.672;9.380;2024-01-30T14:27:48;20.42;;;11.70;;
78131;SDS011;67381;47.672;9.380;2024-01-30T14:30:15;21.17;;;10.85;;
78131;SDS011;67381;47.672;9.380;2024-01-30T14:32:42;20.42;;;11.55;;
78131;SDS011;67381;47.672;9.380;2024-01-30T14:35:11;21.20;;;11.02;;
78131;SDS011;67381;47.672;9.380;2024-01-30T14:37:39;19.52;;;11.50;;
78131;SDS011;67381;47.672;9.380;2024-01-30T14:40:06;19.35;;;11.73;;